Terminal Aerodrome Forecast
Issued by NWS Lake Charles, LA

Home | Current Version | Previous Version | Text Only | Print | Product List | Glossary On
Versions: 1 2 3 4 5 6 7 8 9 10 11 12 13 14 15 16 17 18 19 20 21
000
FTUS44 KLCH 191503 AAB
TAFBPT
TAF AMD
KBPT 191503Z 1915/2012 11009KT 5SM BR BKN006 OVC013
     FM191600 14015G22KT P6SM VCSH BKN028
     FM200100 12012KT 4SM BR OVC003=

USA.gov is the U.S. government's official web portal to all federal, state and local government web resources and services.